Terminal Aerodrome Forecast
Issued by NWS Grand Forks, ND

Home | Current Version | Previous Version | Text Only | Print | Product List | Glossary On
Versions: 1 2 3 4 5 6 7 8 9 10 11 12 13 14 15 16 17 18 19
468
FTUS43 KFGF 241857 AAA
TAFFAR
TAF AMD
KFAR 241857Z 2419/2518 01011KT P6SM BKN016
     FM250200 04008KT P6SM SCT015
     FM250700 09005KT P6SM FEW050
     FM251100 12006KT 5SM BR SCT050
     FM251500 13008KT P6SM SCT090=

USA.gov is the U.S. government's official web portal to all federal, state and local government web resources and services.